Time;durP1;ratioP1;P1;durP2;ratioP2;P2;SDS_P1;SDS_P2;PMS_P1;PMS_P2;Temp;Humidity;BMP_temperature;BMP_pressure;BME280_temperature;BME280_humidity;BME280_pressure;Samples;Min_cycle;Max_cycle;Signal;HPM_P1;HPM_P2
2021/12/24 00:00:31;;;;;;;114.88;46.85;;;;;;;-1.33;59.68;95714.50;5028075;28;20030;-75
2021/12/24 00:02:57;;;;;;;114.05;48.60;;;;;;;-1.31;59.71;95717.91;5026843;28;20033;-74
2021/12/24 00:05:22;;;;;;;99.10;42.80;;;;;;;-1.35;59.72;95690.09;5027366;28;20032;-74
2021/12/24 00:07:48;;;;;;;97.50;41.75;;;;;;;-1.32;59.95;95700.44;5027286;28;20091;-74
2021/12/24 00:10:13;;;;;;;92.03;40.40;;;;;;;-1.34;60.98;95699.69;5026989;28;20037;-73
2021/12/24 00:12:44;;;;;;;91.10;39.72;;;;;;;-1.38;61.21;95691.97;5027576;28;20029;-73
2021/12/24 00:15:29;;;;;;;96.75;39.03;;;;;;;-1.34;60.31;95687.38;5026152;28;20605;-74
2021/12/24 00:18:02;;;;;;;93.70;37.13;;;;;;;-1.34;60.39;95694.41;5026824;28;20025;-74
2021/12/24 00:21:26;;;;;;;89.55;38.10;;;;;;;-1.30;60.81;95682.75;5026909;28;20029;-74
2021/12/24 00:36:22;;;;;;;83.00;36.35;;;;;;;-1.25;59.57;95702.56;5026664;28;20064;-74
2021/12/24 00:38:48;;;;;;;88.80;37.65;;;;;;;-1.22;59.79;95690.16;5027067;28;20037;-74
2021/12/24 00:41:14;;;;;;;85.80;35.58;;;;;;;-1.20;59.62;95697.03;5025876;28;20029;-74
2021/12/24 00:43:39;;;;;;;97.55;39.47;;;;;;;-1.16;59.42;95692.41;5026356;28;20039;-74
2021/12/24 00:46:06;;;;;;;107.85;40.88;;;;;;;-1.17;59.18;95688.94;5025519;28;20052;-73
2021/12/24 00:48:31;;;;;;;102.45;40.17;;;;;;;-1.21;59.72;95690.03;5026513;28;20033;-76
2021/12/24 00:51:19;;;;;;;88.97;38.25;;;;;;;-1.21;60.19;95682.16;5024664;28;20029;-75
2021/12/24 00:56:10;;;;;;;83.28;35.42;;;;;;;-1.28;60.93;95668.56;5026679;28;20026;-73
2021/12/24 00:58:35;;;;;;;130.70;47.85;;;;;;;-1.22;59.78;95662.03;5025856;28;20026;-74
2021/12/24 01:01:01;;;;;;;122.30;46.55;;;;;;;-1.23;60.18;95676.16;5007411;28;20031;-74
2021/12/24 01:03:26;;;;;;;117.78;46.17;;;;;;;-1.24;60.05;95669.19;5025524;28;20037;-72
2021/12/24 01:05:52;;;;;;;100.97;40.15;;;;;;;-1.22;60.77;95669.94;5026217;28;20021;-73
2021/12/24 01:08:17;;;;;;;90.55;36.90;;;;;;;-1.25;60.89;95670.13;5025245;28;20040;-73
2021/12/24 01:10:45;;;;;;;76.65;34.83;;;;;;;-1.13;59.45;95658.00;5025775;28;20397;-74
2021/12/24 01:13:11;;;;;;;81.30;33.33;;;;;;;-1.20;58.58;95668.06;5008771;28;20424;-74
2021/12/24 01:15:43;;;;;;;76.05;36.08;;;;;;;-1.25;59.53;95664.88;5007714;28;20484;-73
2021/12/24 01:18:58;;;;;;;77.55;34.83;;;;;;;-1.25;59.70;95654.34;5009413;28;20116;-74
2021/12/24 01:21:31;;;;;;;78.63;33.22;;;;;;;-1.22;59.58;95638.34;5014202;28;20076;-74
2021/12/24 01:24:01;;;;;;;69.47;32.10;;;;;;;-1.20;59.52;95652.28;5025248;28;20420;-74
2021/12/24 01:26:43;;;;;;;76.18;33.90;;;;;;;-1.19;59.71;95655.75;5008868;28;20026;-74
2021/12/24 01:40:06;;;;;;;67.55;31.20;;;;;;;-1.27;59.90;95629.91;5025913;28;20040;-75
2021/12/24 01:45:31;;;;;;;66.75;31.27;;;;;;;-1.23;60.25;95631.41;5003697;28;20045;-75
2021/12/24 01:48:01;;;;;;;70.82;31.17;;;;;;;-1.19;60.27;95626.81;5008702;28;20037;-74
2021/12/24 01:50:28;;;;;;;65.43;30.15;;;;;;;-1.17;59.69;95636.28;5024976;28;20508;-74
2021/12/24 01:52:55;;;;;;;61.17;28.05;;;;;;;-1.19;58.33;95626.81;5026081;28;20042;-74
2021/12/24 01:55:20;;;;;;;67.47;30.50;;;;;;;-1.20;60.18;95625.94;5024980;28;20071;-76
2021/12/24 01:57:46;;;;;;;83.40;36.38;;;;;;;-1.15;60.51;95621.25;5026024;28;20499;-75
2021/12/24 02:00:16;;;;;;;88.05;36.60;;;;;;;-1.30;60.52;95607.28;5025326;28;20018;-76
2021/12/24 02:02:41;;;;;;;85.10;34.88;;;;;;;-1.42;60.82;95611.53;5025193;28;20116;-74
2021/12/24 02:05:07;;;;;;;83.43;36.00;;;;;;;-1.42;60.98;95603.63;5008402;28;20160;-75
2021/12/24 02:07:32;;;;;;;81.35;36.08;;;;;;;-1.44;60.47;95596.78;5025357;28;20033;-75
2021/12/24 02:09:58;;;;;;;73.07;31.30;;;;;;;-1.47;59.90;95600.47;5025873;28;20052;-76
2021/12/24 02:12:25;;;;;;;66.32;32.35;;;;;;;-1.44;59.75;95597.66;5025333;28;20036;-75
2021/12/24 02:14:54;;;;;;;75.53;32.70;;;;;;;-1.45;60.06;95589.84;5025864;28;20032;-72
2021/12/24 02:30:44;;;;;;;67.47;31.95;;;;;;;-1.59;60.94;95561.78;5025669;28;20110;-75
2021/12/24 02:33:09;;;;;;;68.50;32.35;;;;;;;-1.63;61.04;95556.72;5024386;28;20496;-75
2021/12/24 02:35:35;;;;;;;67.78;31.88;;;;;;;-1.65;60.80;95548.09;5008435;28;20029;-74
2021/12/24 02:38:01;;;;;;;66.97;31.13;;;;;;;-1.69;61.13;95556.28;5024892;28;20037;-73
2021/12/24 02:40:27;;;;;;;75.85;31.42;;;;;;;-1.74;60.96;95548.66;5028728;28;20022;-73
2021/12/24 02:42:54;;;;;;;75.18;33.42;;;;;;;-1.73;61.21;95550.38;5027829;28;20030;-74
2021/12/24 02:45:24;;;;;;;72.70;33.53;;;;;;;-1.70;61.66;95550.19;5027248;28;20128;-74
2021/12/24 02:56:01;;;;;;;50.10;26.98;;;;;;;-1.63;59.35;95535.69;5012901;28;20048;-74
2021/12/24 02:58:26;;;;;;;51.63;24.70;;;;;;;-1.81;60.29;95532.47;5028541;28;20469;-75
2021/12/24 03:00:52;;;;;;;53.42;25.92;;;;;;;-1.90;60.26;95522.50;5011043;28;20025;-74
2021/12/24 03:03:17;;;;;;;54.90;25.80;;;;;;;-1.93;60.72;95527.97;5024631;28;20030;-74
2021/12/24 03:05:43;;;;;;;56.20;25.90;;;;;;;-1.83;59.62;95529.09;5029080;28;20076;-74
2021/12/24 03:08:08;;;;;;;59.38;26.50;;;;;;;-2.00;60.66;95524.91;5027620;28;20083;-74
2021/12/24 03:10:35;;;;;;;51.45;26.00;;;;;;;-1.95;60.78;95514.09;5010551;28;20068;-74
2021/12/24 03:13:01;;;;;;;50.28;24.05;;;;;;;-2.03;61.09;95517.22;5027633;28;20417;-74
2021/12/24 03:15:26;;;;;;;57.33;25.95;;;;;;;-2.08;61.09;95514.84;5028150;28;20120;-74
2021/12/24 03:17:55;;;;;;;48.78;25.40;;;;;;;-2.04;61.16;95515.50;5010392;28;20029;-76
2021/12/24 03:20:22;;;;;;;49.08;25.67;;;;;;;-1.97;60.61;95508.09;5027483;28;20025;-75
2021/12/24 03:25:13;;;;;;;49.38;24.15;;;;;;;-2.12;61.65;95514.22;5027470;28;20037;-74
2021/12/24 03:27:38;;;;;;;45.17;23.65;;;;;;;-2.09;61.29;95514.94;5028489;28;20026;-76
2021/12/24 03:30:04;;;;;;;54.20;23.15;;;;;;;-2.01;60.39;95513.53;5027349;28;20041;-76
2021/12/24 03:32:29;;;;;;;50.35;25.17;;;;;;;-2.10;60.61;95511.50;5027991;28;20021;-74
2021/12/24 03:34:55;;;;;;;52.53;24.92;;;;;;;-2.15;61.34;95503.91;5027636;28;20025;-74
2021/12/24 03:37:20;;;;;;;56.53;25.45;;;;;;;-2.13;61.71;95509.06;5027644;28;20025;-73
2021/12/24 03:39:46;;;;;;;50.75;25.77;;;;;;;-2.18;61.83;95509.34;5027780;28;20033;-74
2021/12/24 03:42:11;;;;;;;55.03;25.58;;;;;;;-2.12;61.33;95503.72;5027353;28;20075;-73
2021/12/24 03:44:50;;;;;;;58.75;26.88;;;;;;;-2.31;62.04;95503.16;5028100;28;20033;-74
2021/12/24 03:47:19;;;;;;;48.60;22.75;;;;;;;-2.27;61.72;95496.78;5027054;28;20542;-74
2021/12/24 03:49:55;;;;;;;48.78;23.42;;;;;;;-2.17;61.40;95495.25;5026961;28;20044;-74
2021/12/24 03:54:59;;;;;;;38.70;18.95;;;;;;;-2.05;60.44;95493.66;5027019;28;20040;-75
2021/12/24 03:57:38;;;;;;;40.95;19.05;;;;;;;-2.01;60.04;95499.53;5027899;28;20116;-75
2021/12/24 04:00:16;;;;;;;38.85;18.20;;;;;;;-2.09;60.35;95491.28;5026663;28;20033;-74
2021/12/24 04:02:41;;;;;;;36.88;19.40;;;;;;;-2.05;60.76;95487.53;5027164;28;20058;-74
2021/12/24 04:05:07;;;;;;;36.22;18.02;;;;;;;-2.11;61.21;95484.38;5027016;28;20065;-74
2021/12/24 04:07:34;;;;;;;37.05;18.63;;;;;;;-2.04;60.79;95486.59;5009485;28;20055;-74
2021/12/24 04:10:06;;;;;;;39.85;18.08;;;;;;;-1.97;60.59;95480.03;5027581;28;20048;-74
2021/12/24 04:12:34;;;;;;;37.85;18.42;;;;;;;-2.15;61.28;95482.03;5027291;28;20044;-75
2021/12/24 04:14:59;;;;;;;41.72;18.70;;;;;;;-2.10;61.14;95479.97;5027400;28;20025;-74
2021/12/24 04:17:25;;;;;;;35.03;19.10;;;;;;;-2.01;61.17;95474.09;5026357;28;20369;-75
2021/12/24 04:25:30;;;;;;;38.80;19.33;;;;;;;-2.20;61.84;95481.47;5026414;28;20087;-74
2021/12/24 04:27:58;;;;;;;36.75;19.50;;;;;;;-2.11;61.22;95478.25;5009807;28;20083;-73
2021/12/24 04:30:28;;;;;;;44.13;19.30;;;;;;;-2.18;61.46;95475.19;5026410;28;20040;-73
2021/12/24 04:33:03;;;;;;;41.13;20.40;;;;;;;-2.18;61.68;95477.81;5026734;28;20026;-73
2021/12/24 05:02:18;;;;;;;44.33;20.60;;;;;;;-2.44;63.45;95492.59;4954590;28;20075;-75
2021/12/24 05:04:54;;;;;;;42.25;20.15;;;;;;;-2.46;63.26;95489.19;5025648;28;20124;-76
2021/12/24 05:10:03;;;;;;;;;;;;;;;-2.38;62.86;95487.78;5007462;28;20040;-76
2021/12/24 05:12:31;;;;;;;38.70;18.15;;;;;;;-2.54;63.55;95472.16;5008390;28;19913;-73
2021/12/24 05:14:59;;;;;;;36.70;17.83;;;;;;;-2.45;63.19;95481.22;5025877;28;20080;-74
2021/12/24 05:17:44;;;;;;;34.05;18.73;;;;;;;-2.53;63.37;95479.06;5007620;28;20025;-74
2021/12/24 05:22:53;;;;;;;38.70;18.30;;;;;;;-2.54;64.12;95484.41;5024603;28;20045;-74
2021/12/24 05:25:19;;;;;;;38.60;18.48;;;;;;;-2.45;63.46;95485.66;5024679;28;20033;-75
2021/12/24 05:27:44;;;;;;;45.05;19.73;;;;;;;-2.58;64.17;95486.41;5025471;28;20037;-77
2021/12/24 05:30:10;;;;;;;39.65;19.70;;;;;;;-2.44;63.72;95480.31;5007307;28;20033;-75
2021/12/24 05:32:36;;;;;;;35.22;18.73;;;;;;;-2.55;63.88;95474.88;5025736;28;20109;-76
2021/12/24 05:35:02;;;;;;;35.17;18.10;;;;;;;-2.64;64.47;95474.50;5022246;28;20389;-74
2021/12/24 05:37:27;;;;;;;37.83;19.08;;;;;;;-2.57;64.38;95477.59;5023056;28;20039;-74
2021/12/24 05:39:53;;;;;;;40.08;21.60;;;;;;;-2.59;64.32;95473.34;4990627;28;20026;-75
2021/12/24 05:42:19;;;;;;;41.70;20.90;;;;;;;-2.63;63.84;95468.28;5025361;28;20033;-75
2021/12/24 05:44:44;;;;;;;38.78;20.55;;;;;;;-2.59;64.07;95473.34;5024087;28;20041;-76
2021/12/24 05:47:10;;;;;;;41.63;20.75;;;;;;;-2.57;64.09;95480.22;5025764;28;20025;-75
2021/12/24 05:49:35;;;;;;;46.20;23.23;;;;;;;-2.57;64.32;95474.09;5024897;28;20037;-75
2021/12/24 05:52:01;;;;;;;53.75;24.73;;;;;;;-2.57;64.28;95455.72;5024145;28;20045;-73
2021/12/24 05:54:27;;;;;;;48.58;25.90;;;;;;;-2.50;63.88;95451.78;5024741;28;20025;-76
2021/12/24 05:56:52;;;;;;;52.25;26.52;;;;;;;-2.43;63.73;95447.81;5023637;28;20084;-74
2021/12/24 05:59:18;;;;;;;55.08;27.88;;;;;;;-2.39;63.72;95449.34;5024851;28;20037;-74
2021/12/24 06:01:45;;;;;;;56.72;26.45;;;;;;;-2.39;63.40;95446.72;5024144;28;20536;-74
2021/12/24 06:04:11;;;;;;;53.95;27.02;;;;;;;-2.45;64.31;95444.44;5024914;28;20029;-75
2021/12/24 06:06:36;;;;;;;46.88;24.30;;;;;;;-2.40;64.12;95452.88;5024311;28;20486;-77
2021/12/24 06:09:02;;;;;;;48.80;23.85;;;;;;;-2.28;63.01;95461.78;5025234;28;20462;-74
2021/12/24 06:11:28;;;;;;;47.17;23.08;;;;;;;-2.32;63.44;95456.81;5025103;28;20025;-75
2021/12/24 06:13:55;;;;;;;45.00;21.92;;;;;;;-2.42;63.05;95460.00;5027232;28;20037;-75
2021/12/24 06:16:21;;;;;;;48.72;23.63;;;;;;;-2.53;63.90;95460.69;5028722;28;20029;-75
2021/12/24 06:18:47;;;;;;;50.10;23.55;;;;;;;-2.55;64.55;95454.72;5027839;28;20107;-74
2021/12/24 06:21:12;;;;;;;45.83;24.10;;;;;;;-2.50;64.22;95470.19;5028218;28;20033;-75
2021/12/24 06:23:38;;;;;;;51.38;26.35;;;;;;;-2.49;64.55;95474.47;5028573;28;20033;-76
2021/12/24 06:26:04;;;;;;;50.35;24.08;;;;;;;-2.45;64.21;95478.59;5027518;28;20022;-73
2021/12/24 06:28:30;;;;;;;52.38;24.30;;;;;;;-2.31;63.27;95485.63;5029267;28;20026;-75
2021/12/24 06:30:55;;;;;;;46.28;24.00;;;;;;;-2.22;63.05;95489.44;5027501;28;20036;-75
2021/12/24 06:33:21;;;;;;;51.13;23.10;;;;;;;-2.24;63.22;95493.94;4994232;28;20118;-75
2021/12/24 06:35:46;;;;;;;53.28;25.45;;;;;;;-2.34;64.07;95490.22;5008333;28;20030;-74
2021/12/24 06:38:12;;;;;;;49.03;24.90;;;;;;;-2.35;64.39;95486.75;5028774;28;20032;-74
2021/12/24 06:40:37;;;;;;;46.75;24.02;;;;;;;-2.33;64.52;95481.41;5027953;28;20022;-74
2021/12/24 06:43:03;;;;;;;46.17;24.63;;;;;;;-2.33;65.04;95499.78;5010773;28;20431;-74
2021/12/24 06:45:28;;;;;;;51.20;25.27;;;;;;;-2.31;63.96;95493.50;5017742;28;20045;-75
2021/12/24 06:47:55;;;;;;;51.85;26.25;;;;;;;-2.16;63.67;95478.53;5010124;28;20028;-74
2021/12/24 06:50:21;;;;;;;51.47;26.15;;;;;;;-2.20;63.77;95478.84;5028536;28;20033;-74
2021/12/24 06:52:46;;;;;;;52.08;26.25;;;;;;;-2.29;64.47;95473.22;5006212;28;20049;-75
2021/12/24 06:55:12;;;;;;;47.67;24.33;;;;;;;-2.32;64.95;95462.91;5007427;28;20055;-75
2021/12/24 06:57:39;;;;;;;52.00;24.88;;;;;;;-2.20;64.39;95463.94;5006650;28;20034;-74
2021/12/24 07:00:05;;;;;;;50.28;23.55;;;;;;;-2.42;64.56;95472.31;5007678;28;20037;-78
2021/12/24 07:02:31;;;;;;;45.95;24.08;;;;;;;-2.59;65.54;95470.72;5006065;28;20026;-76
2021/12/24 07:04:56;;;;;;;45.13;24.38;;;;;;;-2.51;66.27;95479.84;5007041;28;20515;-74
2021/12/24 07:07:21;;;;;;;47.47;24.08;;;;;;;-2.25;65.31;95473.88;5008281;28;20049;-75
2021/12/24 07:09:47;;;;;;;51.83;24.92;;;;;;;-2.26;65.16;95482.72;5008008;28;20457;-76
2021/12/24 07:12:13;;;;;;;50.08;25.08;;;;;;;-2.16;65.03;95481.19;5006873;28;20500;-73
2021/12/24 07:14:39;;;;;;;49.95;25.60;;;;;;;-2.07;64.80;95473.66;5006462;28;20034;-74
2021/12/24 07:17:05;;;;;;;55.15;28.55;;;;;;;-2.21;65.06;95462.25;5008518;28;20576;-74
2021/12/24 07:19:30;;;;;;;52.58;27.33;;;;;;;-2.20;65.05;95473.59;5003543;28;20042;-75
2021/12/24 07:21:56;;;;;;;56.47;29.27;;;;;;;-2.29;65.22;95480.28;5007983;28;20033;-75
2021/12/24 07:24:21;;;;;;;58.75;28.00;;;;;;;-2.14;65.09;95479.31;4983551;28;20066;-74
2021/12/24 07:26:47;;;;;;;52.42;26.60;;;;;;;-1.94;64.15;95477.19;5005736;28;20033;-74
2021/12/24 07:29:12;;;;;;;55.20;29.38;;;;;;;-1.81;63.55;95479.03;5007608;28;20025;-74
2021/12/24 07:31:37;;;;;;;54.08;27.50;;;;;;;-1.80;63.64;95473.66;5005702;28;20045;-73
2021/12/24 07:34:03;;;;;;;56.30;27.80;;;;;;;-1.68;63.03;95474.66;5007943;28;20030;-75
2021/12/24 07:36:28;;;;;;;53.58;28.80;;;;;;;-1.67;63.26;95471.06;5006294;28;20022;-75
2021/12/24 07:38:54;;;;;;;58.38;28.25;;;;;;;-1.68;62.84;95464.16;5008171;28;20088;-76
2021/12/24 07:41:19;;;;;;;51.45;26.48;;;;;;;-1.64;63.26;95464.75;5006006;28;20033;-76
2021/12/24 07:43:46;;;;;;;53.17;28.30;;;;;;;-1.56;63.24;95466.88;5007268;28;20038;-75
2021/12/24 07:46:11;;;;;;;55.03;27.27;;;;;;;-1.40;62.66;95466.72;5006175;28;20105;-74
2021/12/24 07:48:44;;;;;;;57.85;27.50;;;;;;;-1.29;61.99;95469.47;5007467;28;20041;-76
2021/12/24 07:53:59;;;;;;;51.58;28.38;;;;;;;-1.32;62.57;95472.31;5027389;28;20044;-75
2021/12/24 07:56:25;;;;;;;59.53;29.10;;;;;;;-1.17;61.80;95473.06;5029573;28;20423;-74
2021/12/24 07:58:51;;;;;;;56.25;29.23;;;;;;;-0.87;61.38;95469.28;5012512;28;20036;-75
2021/12/24 08:01:16;;;;;;;57.83;28.73;;;;;;;-0.43;59.83;95468.94;5028052;28;20029;-76
2021/12/24 08:03:41;;;;;;;58.47;30.20;;;;;;;-0.09;58.89;95470.13;5027128;28;20025;-76
2021/12/24 08:06:07;;;;;;;55.85;30.30;;;;;;;0.22;58.44;95465.28;5008127;28;20025;-75
2021/12/24 08:08:32;;;;;;;52.78;30.85;;;;;;;0.43;56.96;95454.09;5010362;28;20377;-76
2021/12/24 08:10:58;;;;;;;53.72;29.35;;;;;;;0.74;57.00;95451.81;5026271;28;20033;-74
2021/12/24 08:13:23;;;;;;;56.10;30.67;;;;;;;0.95;56.04;95462.53;5027343;28;20025;-74
2021/12/24 08:15:53;;;;;;;52.38;29.85;;;;;;;1.13;55.20;95464.72;5025380;28;20026;-74
2021/12/24 08:18:18;;;;;;;54.72;29.20;;;;;;;1.33;55.32;95455.28;5026155;28;20029;-75
2021/12/24 08:20:44;;;;;;;56.55;28.80;;;;;;;1.44;54.50;95448.28;5008774;28;20029;-76
2021/12/24 08:23:09;;;;;;;53.63;29.00;;;;;;;1.67;53.77;95443.00;5026641;28;20033;-74
2021/12/24 08:25:35;;;;;;;54.75;28.45;;;;;;;1.87;53.27;95438.75;5026534;28;20041;-78
2021/12/24 08:28:01;;;;;;;48.60;27.20;;;;;;;2.00;53.62;95420.09;5001214;28;20021;-75
2021/12/24 08:30:27;;;;;;;51.42;27.55;;;;;;;2.01;53.62;95416.50;5009632;28;20038;-75
2021/12/24 08:32:54;;;;;;;52.10;27.98;;;;;;;1.96;53.81;95416.03;5025347;28;20029;-75
2021/12/24 08:35:24;;;;;;;51.22;29.00;;;;;;;2.17;52.79;95415.25;5007872;28;20021;-74
2021/12/24 08:37:49;;;;;;;49.42;27.88;;;;;;;2.14;53.09;95405.78;5007403;28;20083;-77
2021/12/24 08:40:15;;;;;;;50.08;27.83;;;;;;;2.32;53.29;95408.69;5026881;28;20033;-75
2021/12/24 08:42:40;;;;;;;52.13;28.40;;;;;;;2.50;52.72;95410.78;5009024;28;20097;-76
2021/12/24 08:45:06;;;;;;;50.67;27.08;;;;;;;2.65;52.54;95410.47;5023563;28;20045;-77
2021/12/24 08:47:31;;;;;;;47.45;26.58;;;;;;;2.74;52.32;95417.66;5008692;28;20047;-76
2021/12/24 08:49:57;;;;;;;56.53;29.70;;;;;;;2.67;51.42;95408.56;5026033;28;20028;-75
2021/12/24 08:52:22;;;;;;;54.97;27.30;;;;;;;2.89;52.07;95402.28;5028068;28;20037;-75
2021/12/24 08:54:48;;;;;;;49.33;27.55;;;;;;;2.95;51.55;95403.59;5021640;28;20033;-78
2021/12/24 08:57:13;;;;;;;44.25;24.25;;;;;;;3.12;51.42;95403.94;5024246;28;20513;-76
2021/12/24 08:59:38;;;;;;;38.45;21.38;;;;;;;3.24;51.63;95402.88;5018880;28;20029;-76
2021/12/24 09:02:04;;;;;;;37.22;21.10;;;;;;;3.30;51.72;95402.38;5021871;28;20079;-75
2021/12/24 09:04:30;;;;;;;34.75;20.77;;;;;;;3.27;51.38;95392.03;5021969;28;20046;-77
2021/12/24 09:06:55;;;;;;;39.30;21.27;;;;;;;3.36;51.55;95405.44;5024381;28;20116;-77
2021/12/24 09:09:21;;;;;;;36.70;20.77;;;;;;;3.53;51.16;95396.84;5025459;28;20088;-77
2021/12/24 09:11:47;;;;;;;38.83;21.52;;;;;;;3.55;50.27;95399.38;5024499;28;20041;-75
2021/12/24 09:14:17;;;;;;;41.90;22.52;;;;;;;3.58;50.86;95389.34;5008061;28;20033;-77
2021/12/24 09:16:43;;;;;;;48.45;27.05;;;;;;;3.43;50.47;95382.75;5006386;28;20057;-78
2021/12/24 09:19:12;;;;;;;48.97;27.75;;;;;;;3.58;50.24;95378.72;5021251;28;20855;-75
2021/12/24 09:21:38;;;;;;;51.85;28.30;;;;;;;3.64;50.39;95371.22;5021519;28;20029;-76
2021/12/24 09:24:06;;;;;;;50.88;29.00;;;;;;;3.79;50.38;95369.84;5023482;28;20029;-76
2021/12/24 09:26:32;;;;;;;59.33;30.20;;;;;;;3.85;50.48;95368.47;5004566;28;20458;-74
2021/12/24 09:29:02;;;;;;;52.33;29.83;;;;;;;3.74;50.08;95368.59;5024186;28;20030;-77
2021/12/24 09:31:27;;;;;;;54.58;30.98;;;;;;;3.86;49.35;95358.69;5006805;28;20095;-78
2021/12/24 09:33:53;;;;;;;55.38;30.55;;;;;;;3.82;49.24;95366.09;5007633;28;20034;-76
2021/12/24 09:36:24;;;;;;;52.42;29.55;;;;;;;3.92;49.66;95356.34;5025769;28;20515;-75
2021/12/24 09:38:49;;;;;;;63.53;31.00;;;;;;;3.95;48.68;95364.00;5008938;28;20104;-76
2021/12/24 09:41:15;;;;;;;49.65;27.90;;;;;;;4.05;49.42;95353.41;5025108;28;20116;-74
2021/12/24 09:43:41;;;;;;;61.05;33.85;;;;;;;4.03;48.76;95349.22;5025988;28;20041;-76
2021/12/24 09:46:06;;;;;;;53.42;27.60;;;;;;;4.11;48.39;95341.38;5006255;28;20048;-77
2021/12/24 09:48:31;;;;;;;45.60;26.15;;;;;;;4.13;48.69;95333.28;5027989;28;20033;-74
2021/12/24 09:50:57;;;;;;;40.28;22.48;;;;;;;4.36;48.35;95333.00;5011252;28;20049;-77
2021/12/24 09:53:22;;;;;;;55.28;28.05;;;;;;;4.36;48.78;95323.25;5028201;28;20045;-75
2021/12/24 09:55:48;;;;;;;37.53;22.60;;;;;;;4.39;48.96;95330.06;5029709;28;20084;-75
2021/12/24 09:58:13;;;;;;;41.92;23.27;;;;;;;4.46;48.52;95323.22;5022847;28;20639;-75
2021/12/24 10:00:39;;;;;;;40.08;22.92;;;;;;;4.52;48.35;95316.50;5027039;28;20417;-78
2021/12/24 10:03:05;;;;;;;39.45;23.15;;;;;;;4.57;48.37;95307.13;5010881;28;20041;-76
2021/12/24 10:05:38;;;;;;;43.80;23.17;;;;;;;4.50;48.53;95300.72;5030132;28;20033;-76
2021/12/24 10:08:22;;;;;;;41.15;23.30;;;;;;;4.57;48.32;95307.13;5027597;28;20080;-76
2021/12/24 10:10:51;;;;;;;40.92;24.27;;;;;;;4.62;47.72;95292.56;5029983;28;20503;-77
2021/12/24 10:13:34;;;;;;;42.17;22.58;;;;;;;4.81;47.99;95289.88;5011833;28;20160;-75
2021/12/24 10:16:08;;;;;;;39.42;21.38;;;;;;;4.79;47.79;95286.53;5011102;28;20544;-75
2021/12/24 10:18:41;;;;;;;39.42;22.95;;;;;;;4.79;47.49;95283.00;5012313;28;20488;-76
2021/12/24 10:21:08;;;;;;;39.67;20.50;;;;;;;4.94;48.52;95283.41;5028602;28;20060;-77
2021/12/24 10:23:48;;;;;;;36.78;21.77;;;;;;;4.98;47.22;95274.13;5011811;28;20048;-76
2021/12/24 10:26:24;;;;;;;38.45;22.27;;;;;;;4.95;47.59;95274.44;5028975;28;20087;-76
2021/12/24 10:29:20;;;;;;;38.80;21.92;;;;;;;4.97;47.67;95261.84;5010784;28;20025;-75
2021/12/24 10:31:50;;;;;;;37.28;21.13;;;;;;;4.97;48.35;95245.88;5012057;28;20050;-77
2021/12/24 10:34:22;;;;;;;40.47;21.05;;;;;;;5.13;47.26;95249.72;5010897;28;20021;-77
2021/12/24 10:37:01;;;;;;;34.08;20.58;;;;;;;5.00;48.31;95250.91;4995131;28;20488;-75
2021/12/24 10:39:59;;;;;;;36.17;21.10;;;;;;;5.04;47.52;95254.97;5029015;28;20188;-76
2021/12/24 10:42:32;;;;;;;37.00;21.92;;;;;;;5.12;47.11;95246.25;5009622;28;20189;-79
2021/12/24 10:44:58;;;;;;;34.55;21.90;;;;;;;5.18;46.81;95242.16;5011361;28;20063;-75
2021/12/24 10:47:28;;;;;;;32.45;18.35;;;;;;;5.36;47.71;95239.53;5010318;28;20033;-80
2021/12/24 10:52:59;;;;;;;31.75;18.90;;;;;;;5.58;47.91;95229.44;5012225;28;20540;-78
2021/12/24 10:55:34;;;;;;;17.25;9.73;;;;;;;5.87;48.46;95225.72;5026990;28;20029;-76
2021/12/24 10:58:00;;;;;;;16.70;7.70;;;;;;;6.06;48.60;95230.06;5011867;28;20505;-78
2021/12/24 11:00:37;;;;;;;8.52;4.28;;;;;;;6.32;47.93;95223.09;4992856;28;20064;-76
2021/12/24 11:03:05;;;;;;;10.48;4.40;;;;;;;6.57;47.74;95215.28;5028955;28;20029;-77
2021/12/24 11:05:38;;;;;;;10.70;4.60;;;;;;;6.76;47.28;95218.72;5028860;28;20113;-79
2021/12/24 11:08:06;;;;;;;16.77;4.18;;;;;;;6.92;46.49;95204.63;4994464;28;20463;-77
2021/12/24 11:10:34;;;;;;;6.57;3.70;;;;;;;7.00;46.43;95206.50;5029042;28;20021;-79
2021/12/24 11:13:13;;;;;;;5.82;3.60;;;;;;;7.16;45.56;95208.38;5010374;28;20032;-77
2021/12/24 11:15:46;;;;;;;7.05;3.97;;;;;;;7.27;45.72;95192.09;5028414;28;20029;-77
2021/12/24 11:18:25;;;;;;;7.93;4.60;;;;;;;7.39;45.47;95194.47;5028389;28;20017;-75
2021/12/24 11:20:52;;;;;;;12.18;3.88;;;;;;;7.43;44.82;95203.81;5010072;28;20021;-77
2021/12/24 11:23:18;;;;;;;12.30;3.80;;;;;;;7.42;44.88;95196.81;5029024;28;20041;-78
2021/12/24 11:25:46;;;;;;;7.97;3.80;;;;;;;7.54;44.92;95189.34;5027126;28;20030;-75
2021/12/24 11:28:12;;;;;;;9.07;4.68;;;;;;;7.69;45.04;95194.84;5028526;28;20053;-77
2021/12/24 11:30:39;;;;;;;9.15;3.92;;;;;;;7.74;44.18;95184.50;5009736;28;20029;-77
2021/12/24 11:33:05;;;;;;;4.55;3.20;;;;;;;7.87;43.95;95173.34;5028182;28;20119;-76
2021/12/24 11:35:31;;;;;;;8.45;3.85;;;;;;;7.90;44.18;95178.34;4993525;28;20427;-77
2021/12/24 11:37:59;;;;;;;9.13;3.58;;;;;;;7.90;43.81;95180.16;5010211;28;20022;-76
2021/12/24 11:40:25;;;;;;;5.88;3.53;;;;;;;7.94;43.70;95186.03;5011308;28;20040;-76
2021/12/24 11:42:58;;;;;;;8.65;4.70;;;;;;;8.06;43.74;95191.88;5027137;28;20030;-80
2021/12/24 11:45:24;;;;;;;11.35;4.75;;;;;;;8.14;43.78;95195.38;5011549;28;20065;-77
2021/12/24 11:47:50;;;;;;;9.07;4.63;;;;;;;8.23;43.55;95190.88;5009353;28;20407;-77
2021/12/24 11:50:16;;;;;;;25.30;8.13;;;;;;;8.34;43.29;95186.16;5027755;28;20036;-77
2021/12/24 11:52:42;;;;;;;6.57;4.38;;;;;;;8.44;43.17;95176.13;5027186;28;20057;-75
2021/12/24 11:55:07;;;;;;;9.30;4.47;;;;;;;8.50;42.96;95172.78;5026876;28;20018;-75
2021/12/24 11:57:33;;;;;;;6.85;3.70;;;;;;;8.55;42.66;95174.97;5028498;28;20124;-80
2021/12/24 12:00:10;;;;;;;7.55;3.55;;;;;;;8.59;42.88;95180.81;5009077;28;20029;-80
2021/12/24 12:02:45;;;;;;;6.32;3.42;;;;;;;8.65;42.69;95174.78;5010853;28;20109;-79
2021/12/24 12:05:15;;;;;;;13.80;4.10;;;;;;;8.73;42.38;95179.28;5025905;28;20048;-78
2021/12/24 12:07:40;;;;;;;8.65;4.13;;;;;;;8.72;42.07;95177.63;5026895;28;20030;-77
2021/12/24 12:10:07;;;;;;;5.78;3.65;;;;;;;8.75;42.51;95179.94;5020471;28;20373;-76
2021/12/24 12:12:36;;;;;;;7.45;4.32;;;;;;;8.77;42.11;95176.09;5002221;28;20068;-76
2021/12/24 12:15:28;;;;;;;8.90;4.82;;;;;;;8.70;42.46;95184.97;5009759;28;20119;-76
2021/12/24 12:18:04;;;;;;;6.18;4.40;;;;;;;8.74;42.75;95184.44;5020586;28;20034;-76
2021/12/24 12:20:51;;;;;;;7.57;4.28;;;;;;;8.78;42.54;95174.25;5024074;28;20038;-75
2021/12/24 12:23:52;;;;;;;5.47;3.97;;;;;;;8.82;42.37;95158.69;5026852;28;20124;-77
2021/12/24 12:26:41;;;;;;;8.90;4.53;;;;;;;8.92;42.46;95155.78;5024934;28;20445;-77
2021/12/24 12:29:19;;;;;;;7.53;4.50;;;;;;;8.95;41.95;95158.97;5005914;28;20026;-76
2021/12/24 12:31:49;;;;;;;7.75;4.00;;;;;;;8.95;42.02;95161.66;5006413;28;20032;-77
2021/12/24 12:34:37;;;;;;;6.82;3.97;;;;;;;8.90;41.88;95153.28;4988744;28;20037;-77
2021/12/24 12:37:15;;;;;;;7.60;4.18;;;;;;;8.97;41.82;95148.09;5006170;28;20048;-76
2021/12/24 12:39:41;;;;;;;6.00;3.70;;;;;;;9.09;41.52;95146.69;5005903;28;20113;-76
2021/12/24 12:42:07;;;;;;;10.73;4.35;;;;;;;9.11;41.81;95144.69;5005782;28;20607;-75
2021/12/24 12:44:33;;;;;;;8.45;4.20;;;;;;;9.17;41.23;95135.13;5006677;28;20057;-74
2021/12/24 12:47:34;;;;;;;7.57;4.18;;;;;;;8.92;42.05;95147.78;5005955;28;20088;-80
2021/12/24 12:50:16;;;;;;;23.02;4.32;;;;;;;9.14;41.98;95132.81;5006985;28;20049;-76
2021/12/24 12:52:42;;;;;;;5.03;3.60;;;;;;;9.30;41.57;95137.25;5005780;28;20123;-76
2021/12/24 12:55:30;;;;;;;6.45;4.32;;;;;;;9.25;41.08;95137.75;5006456;28;20451;-75
2021/12/24 12:58:17;;;;;;;10.40;4.30;;;;;;;9.40;41.17;95135.16;5005641;28;20022;-77
2021/12/24 13:01:05;;;;;;;6.55;3.67;;;;;;;9.54;40.96;95132.75;5005872;28;20068;-78
2021/12/24 13:03:32;;;;;;;9.48;4.22;;;;;;;9.49;41.04;95130.59;4992267;28;20117;-77
2021/12/24 13:06:00;;;;;;;11.88;4.57;;;;;;;9.52;40.59;95132.06;5004485;28;20030;-76
2021/12/24 13:08:29;;;;;;;6.60;4.10;;;;;;;9.63;41.07;95131.66;5006708;28;20539;-78
2021/12/24 13:11:05;;;;;;;9.93;4.80;;;;;;;9.73;40.83;95128.75;5006828;28;20507;-74